sensor_id;sensor_type;location;lat;lon;timestamp;P1;durP1;ratioP1;P2;durP2;ratioP2
70850;SDS011;58475;49.662;9.636;2023-07-16T00:02:04;7.20;;;3.30;;
70850;SDS011;58475;49.662;9.636;2023-07-16T00:04:32;6.93;;;3.60;;
70850;SDS011;58475;49.662;9.636;2023-07-16T00:07:01;9.30;;;3.75;;
70850;SDS011;58475;49.662;9.636;2023-07-16T00:09:27;5.05;;;2.75;;
70850;SDS011;58475;49.662;9.636;2023-07-16T00:11:53;6.85;;;2.95;;
70850;SDS011;58475;49.662;9.636;2023-07-16T00:14:18;5.75;;;2.70;;
70850;SDS011;58475;49.662;9.636;2023-07-16T00:16:44;4.82;;;2.85;;
70850;SDS011;58475;49.662;9.636;2023-07-16T00:19:12;4.85;;;2.45;;
70850;SDS011;58475;49.662;9.636;2023-07-16T00:21:37;4.90;;;2.30;;
70850;SDS011;58475;49.662;9.636;2023-07-16T00:24:03;4.85;;;2.33;;
70850;SDS011;58475;49.662;9.636;2023-07-16T00:26:29;6.53;;;2.50;;
70850;SDS011;58475;49.662;9.636;2023-07-16T00:28:55;4.80;;;2.38;;
70850;SDS011;58475;49.662;9.636;2023-07-16T00:31:20;3.67;;;2.10;;
70850;SDS011;58475;49.662;9.636;2023-07-16T00:33:46;4.90;;;2.50;;
70850;SDS011;58475;49.662;9.636;2023-07-16T00:36:11;4.57;;;2.28;;
70850;SDS011;58475;49.662;9.636;2023-07-16T00:38:37;6.32;;;2.70;;
70850;SDS011;58475;49.662;9.636;2023-07-16T00:41:03;6.30;;;2.60;;
70850;SDS011;58475;49.662;9.636;2023-07-16T00:43:28;5.50;;;2.28;;
70850;SDS011;58475;49.662;9.636;2023-07-16T00:45:53;6.03;;;2.67;;
70850;SDS011;58475;49.662;9.636;2023-07-16T00:48:19;7.55;;;2.30;;
70850;SDS011;58475;49.662;9.636;2023-07-16T00:50:45;10.20;;;2.70;;
70850;SDS011;58475;49.662;9.636;2023-07-16T00:53:10;7.47;;;2.70;;
70850;SDS011;58475;49.662;9.636;2023-07-16T00:55:37;5.93;;;2.70;;
70850;SDS011;58475;49.662;9.636;2023-07-16T00:58:04;5.32;;;2.80;;
70850;SDS011;58475;49.662;9.636;2023-07-16T01:00:32;7.32;;;2.92;;
70850;SDS011;58475;49.662;9.636;2023-07-16T01:02:58;6.20;;;2.90;;
70850;SDS011;58475;49.662;9.636;2023-07-16T01:05:24;8.88;;;2.88;;
70850;SDS011;58475;49.662;9.636;2023-07-16T01:07:55;4.68;;;2.90;;
70850;SDS011;58475;49.662;9.636;2023-07-16T01:10:26;6.30;;;2.90;;
70850;SDS011;58475;49.662;9.636;2023-07-16T01:12:54;5.32;;;2.58;;
70850;SDS011;58475;49.662;9.636;2023-07-16T01:15:21;6.18;;;3.05;;
70850;SDS011;58475;49.662;9.636;2023-07-16T01:17:46;6.13;;;2.75;;
70850;SDS011;58475;49.662;9.636;2023-07-16T01:20:12;7.38;;;3.00;;
70850;SDS011;58475;49.662;9.636;2023-07-16T01:23:01;7.32;;;3.00;;
70850;SDS011;58475;49.662;9.636;2023-07-16T01:31:07;6.22;;;3.05;;
70850;SDS011;58475;49.662;9.636;2023-07-16T01:33:38;5.28;;;2.67;;
70850;SDS011;58475;49.662;9.636;2023-07-16T01:36:06;6.65;;;2.67;;
70850;SDS011;58475;49.662;9.636;2023-07-16T01:38:33;6.85;;;2.90;;
70850;SDS011;58475;49.662;9.636;2023-07-16T01:40:59;6.25;;;2.50;;
70850;SDS011;58475;49.662;9.636;2023-07-16T01:43:25;7.25;;;2.90;;
70850;SDS011;58475;49.662;9.636;2023-07-16T01:45:50;7.40;;;3.03;;
70850;SDS011;58475;49.662;9.636;2023-07-16T01:48:24;6.45;;;2.83;;
70850;SDS011;58475;49.662;9.636;2023-07-16T01:50:55;5.68;;;2.60;;
70850;SDS011;58475;49.662;9.636;2023-07-16T01:53:20;5.78;;;2.72;;
70850;SDS011;58475;49.662;9.636;2023-07-16T01:55:46;6.22;;;2.30;;
70850;SDS011;58475;49.662;9.636;2023-07-16T01:58:11;4.65;;;2.45;;
70850;SDS011;58475;49.662;9.636;2023-07-16T02:00:36;4.55;;;2.20;;
70850;SDS011;58475;49.662;9.636;2023-07-16T02:03:02;5.20;;;2.22;;
70850;SDS011;58475;49.662;9.636;2023-07-16T02:05:31;4.88;;;2.78;;
70850;SDS011;58475;49.662;9.636;2023-07-16T02:07:56;6.35;;;2.28;;
70850;SDS011;58475;49.662;9.636;2023-07-16T02:10:21;3.28;;;1.88;;
70850;SDS011;58475;49.662;9.636;2023-07-16T02:12:47;5.22;;;2.10;;
70850;SDS011;58475;49.662;9.636;2023-07-16T02:15:12;6.00;;;2.20;;
70850;SDS011;58475;49.662;9.636;2023-07-16T02:17:38;4.38;;;1.80;;
70850;SDS011;58475;49.662;9.636;2023-07-16T02:20:03;2.92;;;1.67;;
70850;SDS011;58475;49.662;9.636;2023-07-16T02:22:33;6.20;;;2.10;;
70850;SDS011;58475;49.662;9.636;2023-07-16T02:25:01;4.18;;;2.00;;
70850;SDS011;58475;49.662;9.636;2023-07-16T02:27:27;3.03;;;1.63;;
70850;SDS011;58475;49.662;9.636;2023-07-16T02:29:52;3.90;;;1.90;;
70850;SDS011;58475;49.662;9.636;2023-07-16T02:32:17;4.07;;;1.98;;
70850;SDS011;58475;49.662;9.636;2023-07-16T02:34:43;3.72;;;1.85;;
70850;SDS011;58475;49.662;9.636;2023-07-16T02:37:08;4.95;;;2.03;;
70850;SDS011;58475;49.662;9.636;2023-07-16T02:39:33;3.72;;;1.85;;
70850;SDS011;58475;49.662;9.636;2023-07-16T02:41:59;5.18;;;2.15;;
70850;SDS011;58475;49.662;9.636;2023-07-16T02:44:24;5.18;;;1.80;;
70850;SDS011;58475;49.662;9.636;2023-07-16T02:46:50;3.65;;;1.90;;
70850;SDS011;58475;49.662;9.636;2023-07-16T02:49:16;4.25;;;1.80;;
70850;SDS011;58475;49.662;9.636;2023-07-16T02:51:41;4.45;;;1.80;;
70850;SDS011;58475;49.662;9.636;2023-07-16T02:54:06;6.28;;;1.90;;
70850;SDS011;58475;49.662;9.636;2023-07-16T02:56:32;4.22;;;1.90;;
70850;SDS011;58475;49.662;9.636;2023-07-16T02:58:57;5.30;;;2.05;;
70850;SDS011;58475;49.662;9.636;2023-07-16T03:01:23;5.38;;;2.40;;
70850;SDS011;58475;49.662;9.636;2023-07-16T03:03:48;3.92;;;2.03;;
70850;SDS011;58475;49.662;9.636;2023-07-16T03:06:15;4.65;;;1.90;;
70850;SDS011;58475;49.662;9.636;2023-07-16T03:08:40;4.97;;;2.20;;
70850;SDS011;58475;49.662;9.636;2023-07-16T03:11:06;4.75;;;1.98;;
70850;SDS011;58475;49.662;9.636;2023-07-16T03:13:32;5.35;;;2.00;;
70850;SDS011;58475;49.662;9.636;2023-07-16T03:15:57;3.90;;;1.83;;
70850;SDS011;58475;49.662;9.636;2023-07-16T03:18:27;5.95;;;2.10;;
70850;SDS011;58475;49.662;9.636;2023-07-16T03:20:54;5.65;;;2.30;;
70850;SDS011;58475;49.662;9.636;2023-07-16T03:23:19;5.95;;;2.28;;
70850;SDS011;58475;49.662;9.636;2023-07-16T03:25:45;5.63;;;1.88;;
70850;SDS011;58475;49.662;9.636;2023-07-16T03:28:11;5.22;;;2.10;;
70850;SDS011;58475;49.662;9.636;2023-07-16T03:30:36;6.15;;;2.08;;
70850;SDS011;58475;49.662;9.636;2023-07-16T03:33:03;7.38;;;2.30;;
70850;SDS011;58475;49.662;9.636;2023-07-16T03:35:29;5.63;;;2.05;;
70850;SDS011;58475;49.662;9.636;2023-07-16T03:37:55;7.28;;;2.38;;
70850;SDS011;58475;49.662;9.636;2023-07-16T03:40:25;4.97;;;1.90;;
70850;SDS011;58475;49.662;9.636;2023-07-16T03:42:51;5.03;;;2.00;;
70850;SDS011;58475;49.662;9.636;2023-07-16T03:45:17;4.45;;;1.98;;
70850;SDS011;58475;49.662;9.636;2023-07-16T03:47:43;5.30;;;2.00;;
70850;SDS011;58475;49.662;9.636;2023-07-16T03:50:08;4.28;;;2.00;;
70850;SDS011;58475;49.662;9.636;2023-07-16T03:52:34;4.28;;;1.90;;
70850;SDS011;58475;49.662;9.636;2023-07-16T03:54:59;5.07;;;2.05;;
70850;SDS011;58475;49.662;9.636;2023-07-16T03:57:27;5.93;;;2.47;;
70850;SDS011;58475;49.662;9.636;2023-07-16T03:59:53;6.85;;;2.03;;
70850;SDS011;58475;49.662;9.636;2023-07-16T04:02:19;6.03;;;2.20;;
70850;SDS011;58475;49.662;9.636;2023-07-16T04:04:44;6.10;;;2.30;;
70850;SDS011;58475;49.662;9.636;2023-07-16T04:07:09;5.85;;;2.30;;
70850;SDS011;58475;49.662;9.636;2023-07-16T04:09:38;5.43;;;2.20;;
70850;SDS011;58475;49.662;9.636;2023-07-16T04:12:04;6.55;;;2.25;;
70850;SDS011;58475;49.662;9.636;2023-07-16T04:14:30;5.32;;;2.58;;
70850;SDS011;58475;49.662;9.636;2023-07-16T04:16:55;6.13;;;2.25;;
70850;SDS011;58475;49.662;9.636;2023-07-16T04:19:21;8.68;;;2.53;;
70850;SDS011;58475;49.662;9.636;2023-07-16T04:21:46;4.68;;;2.03;;
70850;SDS011;58475;49.662;9.636;2023-07-16T04:24:11;6.03;;;2.38;;
70850;SDS011;58475;49.662;9.636;2023-07-16T04:26:37;6.53;;;2.10;;
70850;SDS011;58475;49.662;9.636;2023-07-16T04:29:02;8.02;;;2.25;;
70850;SDS011;58475;49.662;9.636;2023-07-16T04:31:27;7.10;;;2.10;;
70850;SDS011;58475;49.662;9.636;2023-07-16T04:33:53;7.53;;;2.13;;
70850;SDS011;58475;49.662;9.636;2023-07-16T04:36:18;10.30;;;2.50;;
70850;SDS011;58475;49.662;9.636;2023-07-16T04:38:43;5.70;;;2.00;;
70850;SDS011;58475;49.662;9.636;2023-07-16T04:41:09;8.43;;;2.30;;
70850;SDS011;58475;49.662;9.636;2023-07-16T04:43:34;7.70;;;2.22;;
70850;SDS011;58475;49.662;9.636;2023-07-16T04:45:59;6.18;;;2.30;;
70850;SDS011;58475;49.662;9.636;2023-07-16T04:48:25;8.70;;;2.30;;
70850;SDS011;58475;49.662;9.636;2023-07-16T04:50:51;7.88;;;2.40;;
70850;SDS011;58475;49.662;9.636;2023-07-16T04:53:17;7.57;;;2.50;;
70850;SDS011;58475;49.662;9.636;2023-07-16T04:55:43;8.18;;;2.22;;
70850;SDS011;58475;49.662;9.636;2023-07-16T04:58:10;7.60;;;2.15;;
70850;SDS011;58475;49.662;9.636;2023-07-16T05:00:36;9.15;;;2.60;;
70850;SDS011;58475;49.662;9.636;2023-07-16T05:03:02;6.07;;;2.35;;
70850;SDS011;58475;49.662;9.636;2023-07-16T05:05:27;8.98;;;2.40;;
70850;SDS011;58475;49.662;9.636;2023-07-16T05:07:53;8.88;;;2.40;;
70850;SDS011;58475;49.662;9.636;2023-07-16T05:10:18;6.45;;;2.28;;
70850;SDS011;58475;49.662;9.636;2023-07-16T05:12:43;7.88;;;2.17;;
70850;SDS011;58475;49.662;9.636;2023-07-16T05:15:09;8.60;;;2.45;;
70850;SDS011;58475;49.662;9.636;2023-07-16T05:17:34;7.43;;;2.67;;
70850;SDS011;58475;49.662;9.636;2023-07-16T05:20:00;6.80;;;2.30;;
70850;SDS011;58475;49.662;9.636;2023-07-16T05:22:25;8.82;;;2.50;;
70850;SDS011;58475;49.662;9.636;2023-07-16T05:24:51;7.20;;;2.10;;
70850;SDS011;58475;49.662;9.636;2023-07-16T05:27:16;6.43;;;2.58;;
70850;SDS011;58475;49.662;9.636;2023-07-16T05:29:41;6.43;;;2.10;;
70850;SDS011;58475;49.662;9.636;2023-07-16T05:32:07;8.50;;;2.55;;
70850;SDS011;58475;49.662;9.636;2023-07-16T05:34:33;6.45;;;2.33;;
70850;SDS011;58475;49.662;9.636;2023-07-16T05:36:58;9.05;;;2.60;;
70850;SDS011;58475;49.662;9.636;2023-07-16T05:39:24;6.95;;;2.17;;
70850;SDS011;58475;49.662;9.636;2023-07-16T05:41:49;6.90;;;2.40;;
70850;SDS011;58475;49.662;9.636;2023-07-16T05:44:15;6.93;;;2.28;;
70850;SDS011;58475;49.662;9.636;2023-07-16T05:46:40;6.72;;;2.20;;
70850;SDS011;58475;49.662;9.636;2023-07-16T05:49:05;7.85;;;2.30;;
70850;SDS011;58475;49.662;9.636;2023-07-16T05:51:31;9.65;;;2.78;;
70850;SDS011;58475;49.662;9.636;2023-07-16T05:53:57;7.63;;;2.20;;
70850;SDS011;58475;49.662;9.636;2023-07-16T05:56:22;5.78;;;2.00;;
70850;SDS011;58475;49.662;9.636;2023-07-16T05:58:47;7.15;;;2.40;;
70850;SDS011;58475;49.662;9.636;2023-07-16T06:01:13;4.57;;;2.13;;
70850;SDS011;58475;49.662;9.636;2023-07-16T06:03:38;6.38;;;2.30;;
70850;SDS011;58475;49.662;9.636;2023-07-16T06:06:04;8.93;;;2.30;;
70850;SDS011;58475;49.662;9.636;2023-07-16T06:08:29;8.85;;;2.60;;
70850;SDS011;58475;49.662;9.636;2023-07-16T06:10:55;9.05;;;2.45;;
70850;SDS011;58475;49.662;9.636;2023-07-16T06:13:20;10.68;;;2.50;;
70850;SDS011;58475;49.662;9.636;2023-07-16T06:15:46;7.32;;;2.33;;
70850;SDS011;58475;49.662;9.636;2023-07-16T06:18:12;6.28;;;2.42;;
70850;SDS011;58475;49.662;9.636;2023-07-16T06:20:38;6.57;;;2.20;;
70850;SDS011;58475;49.662;9.636;2023-07-16T06:23:03;6.88;;;2.33;;
70850;SDS011;58475;49.662;9.636;2023-07-16T06:25:29;7.00;;;2.10;;
70850;SDS011;58475;49.662;9.636;2023-07-16T06:27:54;6.95;;;2.30;;
70850;SDS011;58475;49.662;9.636;2023-07-16T06:30:22;6.50;;;2.25;;
70850;SDS011;58475;49.662;9.636;2023-07-16T06:32:47;6.43;;;2.13;;
70850;SDS011;58475;49.662;9.636;2023-07-16T06:35:13;7.82;;;2.00;;
70850;SDS011;58475;49.662;9.636;2023-07-16T06:37:38;5.70;;;2.10;;
70850;SDS011;58475;49.662;9.636;2023-07-16T06:40:03;6.57;;;2.08;;
70850;SDS011;58475;49.662;9.636;2023-07-16T06:42:30;5.63;;;2.13;;
70850;SDS011;58475;49.662;9.636;2023-07-16T06:44:57;6.85;;;2.10;;
70850;SDS011;58475;49.662;9.636;2023-07-16T06:47:22;6.97;;;2.20;;
70850;SDS011;58475;49.662;9.636;2023-07-16T06:49:48;7.03;;;2.30;;
70850;SDS011;58475;49.662;9.636;2023-07-16T06:52:20;6.15;;;2.20;;
70850;SDS011;58475;49.662;9.636;2023-07-16T06:54:46;7.00;;;2.10;;
70850;SDS011;58475;49.662;9.636;2023-07-16T06:57:12;6.25;;;2.10;;
70850;SDS011;58475;49.662;9.636;2023-07-16T06:59:38;6.47;;;2.00;;
70850;SDS011;58475;49.662;9.636;2023-07-16T07:02:03;5.43;;;2.35;;
70850;SDS011;58475;49.662;9.636;2023-07-16T07:04:28;6.78;;;2.20;;
70850;SDS011;58475;49.662;9.636;2023-07-16T07:06:54;8.27;;;2.00;;
70850;SDS011;58475;49.662;9.636;2023-07-16T07:09:19;5.25;;;1.88;;
70850;SDS011;58475;49.662;9.636;2023-07-16T07:11:44;7.68;;;2.30;;
70850;SDS011;58475;49.662;9.636;2023-07-16T07:14:10;7.43;;;2.10;;
70850;SDS011;58475;49.662;9.636;2023-07-16T07:16:35;6.88;;;2.50;;
70850;SDS011;58475;49.662;9.636;2023-07-16T07:19:01;5.90;;;2.13;;
70850;SDS011;58475;49.662;9.636;2023-07-16T07:21:26;4.85;;;1.92;;
70850;SDS011;58475;49.662;9.636;2023-07-16T07:23:51;5.63;;;2.13;;
70850;SDS011;58475;49.662;9.636;2023-07-16T07:26:17;5.32;;;2.17;;
70850;SDS011;58475;49.662;9.636;2023-07-16T07:28:42;7.18;;;2.25;;
70850;SDS011;58475;49.662;9.636;2023-07-16T07:31:08;5.68;;;2.10;;
70850;SDS011;58475;49.662;9.636;2023-07-16T07:33:33;4.97;;;2.00;;
70850;SDS011;58475;49.662;9.636;2023-07-16T07:35:58;5.93;;;2.25;;
70850;SDS011;58475;49.662;9.636;2023-07-16T07:38:24;6.68;;;2.30;;
70850;SDS011;58475;49.662;9.636;2023-07-16T07:40:49;3.55;;;1.85;;
70850;SDS011;58475;49.662;9.636;2023-07-16T07:43:14;6.72;;;2.00;;
70850;SDS011;58475;49.662;9.636;2023-07-16T07:45:40;9.32;;;2.40;;
70850;SDS011;58475;49.662;9.636;2023-07-16T07:48:05;5.80;;;2.10;;
70850;SDS011;58475;49.662;9.636;2023-07-16T07:50:30;6.22;;;2.05;;
70850;SDS011;58475;49.662;9.636;2023-07-16T07:52:56;5.97;;;2.20;;
70850;SDS011;58475;49.662;9.636;2023-07-16T07:55:21;5.88;;;2.00;;
70850;SDS011;58475;49.662;9.636;2023-07-16T07:57:47;4.53;;;1.77;;
70850;SDS011;58475;49.662;9.636;2023-07-16T08:00:12;7.18;;;2.17;;
70850;SDS011;58475;49.662;9.636;2023-07-16T08:02:40;7.43;;;2.40;;
70850;SDS011;58475;49.662;9.636;2023-07-16T08:05:05;7.28;;;2.20;;
70850;SDS011;58475;49.662;9.636;2023-07-16T08:07:31;7.75;;;2.40;;
70850;SDS011;58475;49.662;9.636;2023-07-16T08:09:56;6.13;;;2.25;;
70850;SDS011;58475;49.662;9.636;2023-07-16T08:12:22;5.55;;;2.08;;
70850;SDS011;58475;49.662;9.636;2023-07-16T08:14:50;4.25;;;2.20;;
70850;SDS011;58475;49.662;9.636;2023-07-16T08:17:16;7.25;;;2.20;;
70850;SDS011;58475;49.662;9.636;2023-07-16T08:19:41;6.20;;;2.13;;
70850;SDS011;58475;49.662;9.636;2023-07-16T08:22:06;7.93;;;2.25;;
70850;SDS011;58475;49.662;9.636;2023-07-16T08:24:32;8.52;;;2.17;;
70850;SDS011;58475;49.662;9.636;2023-07-16T08:26:57;9.05;;;2.30;;
70850;SDS011;58475;49.662;9.636;2023-07-16T08:29:22;8.27;;;2.22;;
70850;SDS011;58475;49.662;9.636;2023-07-16T08:31:48;5.53;;;2.10;;
70850;SDS011;58475;49.662;9.636;2023-07-16T08:34:14;7.43;;;2.30;;
70850;SDS011;58475;49.662;9.636;2023-07-16T08:36:39;11.32;;;2.20;;
70850;SDS011;58475;49.662;9.636;2023-07-16T08:39:05;5.45;;;2.05;;
70850;SDS011;58475;49.662;9.636;2023-07-16T08:41:30;7.30;;;1.98;;
70850;SDS011;58475;49.662;9.636;2023-07-16T08:43:56;6.05;;;2.10;;
70850;SDS011;58475;49.662;9.636;2023-07-16T08:46:22;9.25;;;2.20;;
70850;SDS011;58475;49.662;9.636;2023-07-16T08:48:48;5.00;;;2.10;;
70850;SDS011;58475;49.662;9.636;2023-07-16T08:51:14;4.97;;;2.40;;
70850;SDS011;58475;49.662;9.636;2023-07-16T08:53:40;6.00;;;2.40;;
70850;SDS011;58475;49.662;9.636;2023-07-16T08:56:05;8.43;;;2.47;;
70850;SDS011;58475;49.662;9.636;2023-07-16T08:58:31;5.43;;;2.00;;
70850;SDS011;58475;49.662;9.636;2023-07-16T09:00:56;7.07;;;2.10;;
70850;SDS011;58475;49.662;9.636;2023-07-16T09:03:24;6.82;;;2.20;;
70850;SDS011;58475;49.662;9.636;2023-07-16T09:05:49;7.63;;;2.40;;
70850;SDS011;58475;49.662;9.636;2023-07-16T09:08:15;6.57;;;2.40;;
70850;SDS011;58475;49.662;9.636;2023-07-16T09:10:41;8.68;;;2.40;;
70850;SDS011;58475;49.662;9.636;2023-07-16T09:13:07;6.10;;;2.20;;
70850;SDS011;58475;49.662;9.636;2023-07-16T09:15:32;7.30;;;2.13;;
70850;SDS011;58475;49.662;9.636;2023-07-16T09:17:59;6.07;;;2.33;;
70850;SDS011;58475;49.662;9.636;2023-07-16T09:20:25;6.07;;;2.05;;
70850;SDS011;58475;49.662;9.636;2023-07-16T09:22:55;7.70;;;2.30;;
70850;SDS011;58475;49.662;9.636;2023-07-16T09:25:28;6.45;;;2.35;;
70850;SDS011;58475;49.662;9.636;2023-07-16T09:27:54;6.03;;;1.95;;
70850;SDS011;58475;49.662;9.636;2023-07-16T09:30:20;6.50;;;2.33;;
70850;SDS011;58475;49.662;9.636;2023-07-16T09:32:46;7.63;;;2.45;;
70850;SDS011;58475;49.662;9.636;2023-07-16T09:35:15;4.85;;;2.00;;
70850;SDS011;58475;49.662;9.636;2023-07-16T09:37:42;4.60;;;2.20;;
70850;SDS011;58475;49.662;9.636;2023-07-16T09:40:09;4.95;;;2.00;;
70850;SDS011;58475;49.662;9.636;2023-07-16T09:42:40;5.97;;;2.30;;
70850;SDS011;58475;49.662;9.636;2023-07-16T09:45:17;9.25;;;2.38;;
70850;SDS011;58475;49.662;9.636;2023-07-16T09:47:43;6.35;;;2.47;;
70850;SDS011;58475;49.662;9.636;2023-07-16T09:50:09;6.85;;;2.10;;
70850;SDS011;58475;49.662;9.636;2023-07-16T09:52:36;6.53;;;2.25;;
70850;SDS011;58475;49.662;9.636;2023-07-16T09:55:03;6.40;;;2.50;;
70850;SDS011;58475;49.662;9.636;2023-07-16T09:57:34;8.45;;;2.33;;
70850;SDS011;58475;49.662;9.636;2023-07-16T10:00:02;6.75;;;2.35;;
70850;SDS011;58475;49.662;9.636;2023-07-16T10:02:38;5.00;;;2.10;;
70850;SDS011;58475;49.662;9.636;2023-07-16T10:05:13;7.93;;;2.15;;
70850;SDS011;58475;49.662;9.636;2023-07-16T10:07:51;5.40;;;2.40;;
70850;SDS011;58475;49.662;9.636;2023-07-16T10:10:18;7.35;;;2.72;;
70850;SDS011;58475;49.662;9.636;2023-07-16T10:12:54;6.03;;;2.30;;
70850;SDS011;58475;49.662;9.636;2023-07-16T10:15:25;7.40;;;2.30;;
70850;SDS011;58475;49.662;9.636;2023-07-16T10:17:54;8.88;;;2.35;;
70850;SDS011;58475;49.662;9.636;2023-07-16T10:20:33;6.63;;;2.50;;
70850;SDS011;58475;49.662;9.636;2023-07-16T10:23:10;5.40;;;2.40;;
70850;SDS011;58475;49.662;9.636;2023-07-16T10:25:39;6.25;;;2.40;;
70850;SDS011;58475;49.662;9.636;2023-07-16T10:28:05;7.97;;;2.53;;
70850;SDS011;58475;49.662;9.636;2023-07-16T10:30:31;5.93;;;2.28;;
70850;SDS011;58475;49.662;9.636;2023-07-16T10:32:58;4.93;;;2.20;;
70850;SDS011;58475;49.662;9.636;2023-07-16T10:35:25;5.50;;;2.15;;
70850;SDS011;58475;49.662;9.636;2023-07-16T10:37:51;7.10;;;2.30;;
70850;SDS011;58475;49.662;9.636;2023-07-16T10:40:19;7.53;;;2.35;;
70850;SDS011;58475;49.662;9.636;2023-07-16T10:42:44;7.90;;;2.78;;
70850;SDS011;58475;49.662;9.636;2023-07-16T10:45:12;7.35;;;2.42;;
70850;SDS011;58475;49.662;9.636;2023-07-16T10:47:40;8.23;;;2.67;;
70850;SDS011;58475;49.662;9.636;2023-07-16T10:50:16;5.97;;;2.35;;
70850;SDS011;58475;49.662;9.636;2023-07-16T10:52:42;8.00;;;2.47;;
70850;SDS011;58475;49.662;9.636;2023-07-16T10:55:07;6.63;;;2.17;;
70850;SDS011;58475;49.662;9.636;2023-07-16T10:57:33;8.02;;;2.60;;
70850;SDS011;58475;49.662;9.636;2023-07-16T10:59:59;6.18;;;2.20;;
70850;SDS011;58475;49.662;9.636;2023-07-16T11:02:25;5.00;;;2.25;;
70850;SDS011;58475;49.662;9.636;2023-07-16T11:04:51;5.72;;;2.33;;
70850;SDS011;58475;49.662;9.636;2023-07-16T11:07:22;6.10;;;2.33;;
70850;SDS011;58475;49.662;9.636;2023-07-16T11:09:52;6.05;;;2.40;;
70850;SDS011;58475;49.662;9.636;2023-07-16T11:12:20;7.97;;;2.35;;
70850;SDS011;58475;49.662;9.636;2023-07-16T11:14:48;8.73;;;2.55;;
70850;SDS011;58475;49.662;9.636;2023-07-16T11:17:15;6.22;;;2.50;;
70850;SDS011;58475;49.662;9.636;2023-07-16T11:19:44;7.22;;;2.67;;
70850;SDS011;58475;49.662;9.636;2023-07-16T11:22:11;6.68;;;2.30;;
70850;SDS011;58475;49.662;9.636;2023-07-16T11:24:46;6.75;;;2.53;;
70850;SDS011;58475;49.662;9.636;2023-07-16T11:27:13;7.10;;;2.78;;
70850;SDS011;58475;49.662;9.636;2023-07-16T11:29:44;5.65;;;2.33;;
70850;SDS011;58475;49.662;9.636;2023-07-16T11:32:10;5.85;;;2.25;;
70850;SDS011;58475;49.662;9.636;2023-07-16T11:34:35;6.53;;;2.45;;
70850;SDS011;58475;49.662;9.636;2023-07-16T11:37:10;5.75;;;2.40;;
70850;SDS011;58475;49.662;9.636;2023-07-16T11:39:36;5.63;;;2.63;;
70850;SDS011;58475;49.662;9.636;2023-07-16T11:42:02;5.65;;;2.10;;
70850;SDS011;58475;49.662;9.636;2023-07-16T11:44:32;6.35;;;2.40;;
70850;SDS011;58475;49.662;9.636;2023-07-16T11:47:01;8.00;;;2.55;;
70850;SDS011;58475;49.662;9.636;2023-07-16T11:49:27;7.32;;;2.53;;
70850;SDS011;58475;49.662;9.636;2023-07-16T11:51:53;6.93;;;2.50;;
70850;SDS011;58475;49.662;9.636;2023-07-16T11:54:18;6.35;;;2.25;;
70850;SDS011;58475;49.662;9.636;2023-07-16T11:56:44;6.15;;;2.40;;
70850;SDS011;58475;49.662;9.636;2023-07-16T11:59:09;6.15;;;2.10;;
70850;SDS011;58475;49.662;9.636;2023-07-16T12:01:34;6.00;;;2.20;;
70850;SDS011;58475;49.662;9.636;2023-07-16T12:04:01;8.30;;;2.63;;
70850;SDS011;58475;49.662;9.636;2023-07-16T12:06:27;4.97;;;2.08;;
70850;SDS011;58475;49.662;9.636;2023-07-16T12:08:52;5.65;;;2.45;;
70850;SDS011;58475;49.662;9.636;2023-07-16T12:11:20;6.63;;;2.25;;
70850;SDS011;58475;49.662;9.636;2023-07-16T12:13:45;6.15;;;2.60;;
70850;SDS011;58475;49.662;9.636;2023-07-16T12:16:11;5.35;;;2.22;;
70850;SDS011;58475;49.662;9.636;2023-07-16T12:18:36;6.82;;;2.50;;
70850;SDS011;58475;49.662;9.636;2023-07-16T12:21:02;4.35;;;2.10;;
70850;SDS011;58475;49.662;9.636;2023-07-16T12:23:27;5.28;;;2.15;;
70850;SDS011;58475;49.662;9.636;2023-07-16T12:25:52;6.80;;;2.40;;
70850;SDS011;58475;49.662;9.636;2023-07-16T12:28:18;6.15;;;2.35;;
70850;SDS011;58475;49.662;9.636;2023-07-16T12:30:43;5.75;;;2.30;;
70850;SDS011;58475;49.662;9.636;2023-07-16T12:33:08;6.45;;;2.42;;
70850;SDS011;58475;49.662;9.636;2023-07-16T12:35:34;9.32;;;2.33;;
70850;SDS011;58475;49.662;9.636;2023-07-16T12:37:59;6.43;;;2.50;;
70850;SDS011;58475;49.662;9.636;2023-07-16T12:40:25;7.30;;;2.20;;
70850;SDS011;58475;49.662;9.636;2023-07-16T12:42:51;7.53;;;2.40;;
70850;SDS011;58475;49.662;9.636;2023-07-16T12:45:16;7.47;;;2.40;;
70850;SDS011;58475;49.662;9.636;2023-07-16T12:47:41;5.95;;;2.20;;
70850;SDS011;58475;49.662;9.636;2023-07-16T12:50:07;5.45;;;2.17;;
70850;SDS011;58475;49.662;9.636;2023-07-16T12:52:33;5.78;;;2.35;;
70850;SDS011;58475;49.662;9.636;2023-07-16T12:54:58;6.30;;;2.20;;
70850;SDS011;58475;49.662;9.636;2023-07-16T12:57:23;6.18;;;2.10;;
70850;SDS011;58475;49.662;9.636;2023-07-16T12:59:49;5.03;;;2.30;;
70850;SDS011;58475;49.662;9.636;2023-07-16T13:02:14;6.38;;;2.47;;
70850;SDS011;58475;49.662;9.636;2023-07-16T13:04:39;5.80;;;2.30;;
70850;SDS011;58475;49.662;9.636;2023-07-16T13:07:05;5.03;;;2.15;;
70850;SDS011;58475;49.662;9.636;2023-07-16T13:09:30;5.60;;;2.30;;
70850;SDS011;58475;49.662;9.636;2023-07-16T13:11:56;6.47;;;2.30;;
70850;SDS011;58475;49.662;9.636;2023-07-16T13:14:21;6.63;;;2.30;;
70850;SDS011;58475;49.662;9.636;2023-07-16T13:16:46;5.72;;;2.30;;
70850;SDS011;58475;49.662;9.636;2023-07-16T13:19:12;5.03;;;2.22;;
70850;SDS011;58475;49.662;9.636;2023-07-16T13:21:37;5.20;;;2.30;;
70850;SDS011;58475;49.662;9.636;2023-07-16T13:24:02;5.97;;;2.50;;
70850;SDS011;58475;49.662;9.636;2023-07-16T13:26:28;6.30;;;2.30;;
70850;SDS011;58475;49.662;9.636;2023-07-16T13:28:54;5.63;;;2.17;;
70850;SDS011;58475;49.662;9.636;2023-07-16T13:31:19;6.22;;;2.28;;
70850;SDS011;58475;49.662;9.636;2023-07-16T13:33:44;5.63;;;2.30;;
70850;SDS011;58475;49.662;9.636;2023-07-16T13:36:10;7.65;;;2.30;;
70850;SDS011;58475;49.662;9.636;2023-07-16T13:38:35;9.82;;;2.47;;
70850;SDS011;58475;49.662;9.636;2023-07-16T13:41:00;4.65;;;2.20;;
70850;SDS011;58475;49.662;9.636;2023-07-16T13:43:26;6.07;;;2.10;;
70850;SDS011;58475;49.662;9.636;2023-07-16T13:45:51;7.32;;;2.35;;
70850;SDS011;58475;49.662;9.636;2023-07-16T13:48:17;5.93;;;2.10;;
70850;SDS011;58475;49.662;9.636;2023-07-16T13:50:42;6.45;;;2.20;;
70850;SDS011;58475;49.662;9.636;2023-07-16T13:53:07;7.70;;;2.42;;
70850;SDS011;58475;49.662;9.636;2023-07-16T13:55:33;4.70;;;2.20;;
70850;SDS011;58475;49.662;9.636;2023-07-16T13:57:58;8.98;;;2.40;;
70850;SDS011;58475;49.662;9.636;2023-07-16T14:00:23;6.32;;;2.40;;
70850;SDS011;58475;49.662;9.636;2023-07-16T14:02:49;6.03;;;2.42;;
70850;SDS011;58475;49.662;9.636;2023-07-16T14:05:14;5.25;;;2.25;;
70850;SDS011;58475;49.662;9.636;2023-07-16T14:07:40;6.05;;;2.63;;
70850;SDS011;58475;49.662;9.636;2023-07-16T14:10:05;5.63;;;2.10;;
70850;SDS011;58475;49.662;9.636;2023-07-16T14:12:31;6.57;;;2.53;;
70850;SDS011;58475;49.662;9.636;2023-07-16T14:14:58;7.13;;;2.53;;
70850;SDS011;58475;49.662;9.636;2023-07-16T14:17:23;7.72;;;2.40;;
70850;SDS011;58475;49.662;9.636;2023-07-16T14:19:49;5.55;;;2.22;;
70850;SDS011;58475;49.662;9.636;2023-07-16T14:22:14;6.40;;;2.45;;
70850;SDS011;58475;49.662;9.636;2023-07-16T14:24:41;6.65;;;2.63;;
70850;SDS011;58475;49.662;9.636;2023-07-16T14:27:07;5.30;;;2.28;;
70850;SDS011;58475;49.662;9.636;2023-07-16T14:29:33;7.35;;;2.80;;
70850;SDS011;58475;49.662;9.636;2023-07-16T14:31:59;5.93;;;2.45;;
70850;SDS011;58475;49.662;9.636;2023-07-16T14:34:25;8.55;;;2.30;;
70850;SDS011;58475;49.662;9.636;2023-07-16T14:36:51;6.95;;;2.42;;
70850;SDS011;58475;49.662;9.636;2023-07-16T14:39:17;5.13;;;2.20;;
70850;SDS011;58475;49.662;9.636;2023-07-16T14:41:42;5.40;;;2.38;;
70850;SDS011;58475;49.662;9.636;2023-07-16T14:44:07;6.20;;;2.20;;
70850;SDS011;58475;49.662;9.636;2023-07-16T14:46:33;5.80;;;2.55;;
70850;SDS011;58475;49.662;9.636;2023-07-16T14:48:58;6.53;;;2.50;;